^^
Station Historical Data
Daily Summary for May 17, 2017 Units:  English    Metric   Both
« Previous Day
Next Day »
Daily Weekly Monthly Yearly Custom
  High: Low: Average:
Temperature: 89.6 °F 53.4 °F 73.2 °F
Dew Point: 66.0 °F 49.0 °F 57.9 °F
Humidity: 85 % 40 % 61 %
Wind Speed: 10.5 mph 0.0 mph 1.2 mph
Wind Gust: 17.3 mph - -
Wind:- - SW
Pressure: 30.04 in 29.91 in -
Precipitation: 0.00 in    
Historical Graphs
 
 
Tabular Data for May 17, 2017
Time Temperature Dew Point Pressure Wind Wind Speed Wind Gust Humidity Rainfall Rate (Hourly) solar Conditions
00:03 59.5 °F 49.3 °F 30.00 in Calm     69 % 0.00 in 0.0 W/m2 CLR
00:08 59.4 °F 49.2 °F 29.99 in Calm     69 % 0.00 in 0.0 W/m2 CLR
00:13 59.4 °F 49.2 °F 30.00 in Calm     69 % 0.00 in 0.0 W/m2 CLR
00:18 59.4 °F 49.2 °F 30.00 in Calm     69 % 0.00 in 0.0 W/m2 CLR
00:23 59.3 °F 49.5 °F 30.00 in Calm     70 % 0.00 in 0.0 W/m2 CLR
00:28 59.1 °F 50.1 °F 29.99 in Calm     72 % 0.00 in 0.0 W/m2 CLR
00:33 58.6 °F 49.6 °F 29.99 in Calm     72 % 0.00 in 0.0 W/m2 CLR
00:38 58.5 °F 49.9 °F 29.99 in Calm     73 % 0.00 in 0.0 W/m2 CLR
00:43 58.8 °F 50.2 °F 29.99 in Calm     73 % 0.00 in 0.0 W/m2 CLR
00:48 58.5 °F 49.9 °F 29.99 in Calm     73 % 0.00 in 0.0 W/m2 CLR
00:53 58.0 °F 49.8 °F 29.99 in Calm     74 % 0.00 in 0.0 W/m2 CLR
00:58 57.6 °F 49.7 °F 29.99 in Calm     75 % 0.00 in 0.0 W/m2 CLR
01:08 57.2 °F 49.3 °F 29.99 in Calm     75 % 0.00 in 0.0 W/m2 CLR
01:13 57.2 °F 49.7 °F 29.99 in Calm     76 % 0.00 in 0.0 W/m2 CLR
01:18 57.2 °F 49.7 °F 29.99 in Calm     76 % 0.00 in 0.0 W/m2 CLR
01:23 57.2 °F 49.7 °F 29.99 in Calm     76 % 0.00 in 0.0 W/m2 CLR
01:28 57.5 °F 50.0 °F 29.98 in Calm     76 % 0.00 in 0.0 W/m2 CLR
01:33 57.2 °F 50.1 °F 29.98 in Calm     77 % 0.00 in 0.0 W/m2 CLR
01:38 56.7 °F 49.6 °F 29.98 in Calm     77 % 0.00 in 0.0 W/m2 CLR
01:43 56.4 °F 49.6 °F 29.98 in Calm     78 % 0.00 in 0.0 W/m2 CLR
01:49 56.3 °F 49.5 °F 29.98 in Calm     78 % 0.00 in 0.0 W/m2 CLR
01:54 56.3 °F 49.9 °F 29.98 in Calm     79 % 0.00 in 0.0 W/m2 CLR
01:59 56.3 °F 49.9 °F 29.98 in Calm     79 % 0.00 in 0.0 W/m2 CLR
02:04 56.4 °F 50.0 °F 29.98 in Calm     79 % 0.00 in 0.0 W/m2 CLR
02:09 56.5 °F 50.1 °F 29.98 in Calm     79 % 0.00 in 0.0 W/m2 CLR
02:14 56.3 °F 49.9 °F 29.98 in Calm     79 % 0.00 in 0.0 W/m2 CLR
02:19 56.1 °F 50.0 °F 29.98 in Calm     80 % 0.00 in 0.0 W/m2 CLR
02:24 56.0 °F 50.3 °F 29.98 in Calm     81 % 0.00 in 0.0 W/m2 CLR
02:29 56.0 °F 50.3 °F 29.98 in Calm     81 % 0.00 in 0.0 W/m2 CLR
02:34 56.0 °F 50.3 °F 29.98 in Calm     81 % 0.00 in 0.0 W/m2 CLR
02:39 55.8 °F 50.1 °F 29.98 in Calm     81 % 0.00 in 0.0 W/m2 CLR
02:44 55.7 °F 50.0 °F 29.98 in Calm     81 % 0.00 in 0.0 W/m2 CLR
02:49 55.7 °F 50.0 °F 29.98 in Calm     81 % 0.00 in 0.0 W/m2 CLR
02:54 55.7 °F 50.3 °F 29.98 in Calm     82 % 0.00 in 0.0 W/m2 CLR
02:59 55.4 °F 49.7 °F 29.98 in Calm     81 % 0.00 in 0.0 W/m2 CLR
03:04 54.9 °F 49.5 °F 29.98 in Calm     82 % 0.00 in 0.0 W/m2 CLR
03:09 54.9 °F 49.8 °F 29.98 in Calm     83 % 0.00 in 0.0 W/m2 CLR
03:14 54.9 °F 49.8 °F 29.98 in Calm     83 % 0.00 in 0.0 W/m2 CLR
03:19 54.9 °F 49.8 °F 29.98 in Calm     83 % 0.00 in 0.0 W/m2 CLR
03:21 54.9 °F 49.8 °F 29.98 in Calm     83 % 0.00 in 0.0 W/m2 CLR
03:26 54.9 °F 49.8 °F 29.98 in Calm     83 % 0.00 in 0.0 W/m2 CLR
03:31 54.7 °F 49.6 °F 29.98 in Calm     83 % 0.00 in 0.0 W/m2 CLR
03:36 54.6 °F 49.5 °F 29.98 in Calm     83 % 0.00 in 0.0 W/m2 CLR
03:41 54.6 °F 49.5 °F 29.99 in Calm     83 % 0.00 in 0.0 W/m2 CLR
03:46 54.7 °F 49.6 °F 29.99 in Calm     83 % 0.00 in 0.0 W/m2 CLR
03:51 54.6 °F 49.5 °F 29.99 in Calm     83 % 0.00 in 0.0 W/m2 CLR
03:56 54.5 °F 49.4 °F 29.99 in Calm     83 % 0.00 in 0.0 W/m2 CLR
04:01 54.5 °F 49.4 °F 29.99 in Calm     83 % 0.00 in 0.0 W/m2 CLR
04:06 54.3 °F 49.2 °F 30.00 in Calm     83 % 0.00 in 0.0 W/m2 CLR
04:11 54.3 °F 49.2 °F 30.00 in Calm     83 % 0.00 in 0.0 W/m2 CLR
04:16 54.2 °F 49.5 °F 30.00 in Calm     84 % 0.00 in 0.0 W/m2 CLR
04:21 54.3 °F 49.6 °F 30.00 in Calm     84 % 0.00 in 0.0 W/m2 CLR
04:26 54.4 °F 49.7 °F 30.00 in Calm     84 % 0.00 in 0.0 W/m2 CLR
04:32 54.4 °F 49.3 °F 30.00 in Calm     83 % 0.00 in 0.0 W/m2 CLR
04:36 54.4 °F 49.7 °F 30.00 in Calm     84 % 0.00 in 0.0 W/m2 CLR
04:42 54.5 °F 49.4 °F 30.00 in Calm     83 % 0.00 in 0.0 W/m2 CLR
04:47 54.6 °F 49.5 °F 30.00 in Calm     83 % 0.00 in 0.0 W/m2 CLR
04:52 54.5 °F 49.4 °F 30.00 in Calm     83 % 0.00 in 0.0 W/m2 CLR
04:57 54.3 °F 49.2 °F 30.00 in Calm     83 % 0.00 in 0.0 W/m2 CLR
05:02 53.8 °F 49.1 °F 30.00 in Calm     84 % 0.00 in 0.0 W/m2 CLR
05:07 53.7 °F 49.0 °F 30.00 in Calm     84 % 0.00 in 0.0 W/m2 CLR
05:12 53.7 °F 49.3 °F 30.00 in Calm     85 % 0.00 in 0.0 W/m2 CLR
05:17 53.7 °F 49.3 °F 30.00 in Calm     85 % 0.00 in 0.0 W/m2 CLR
05:22 53.7 °F 49.3 °F 30.01 in Calm     85 % 0.00 in 0.0 W/m2 CLR
05:27 53.6 °F 49.2 °F 30.01 in Calm     85 % 0.00 in 0.0 W/m2 CLR
05:32 53.5 °F 49.1 °F 30.01 in Calm     85 % 0.00 in 0.0 W/m2 CLR
05:37 53.5 °F 49.1 °F 30.01 in Calm     85 % 0.00 in 0.0 W/m2 CLR
05:42 53.4 °F 49.0 °F 30.01 in Calm     85 % 0.00 in 0.0 W/m2 CLR
05:47 53.6 °F 49.2 °F 30.01 in Calm     85 % 0.00 in 0.0 W/m2 CLR
05:52 53.6 °F 49.2 °F 30.01 in Calm     85 % 0.00 in 5.0 W/m2 CLR
05:57 53.6 °F 49.2 °F 30.01 in Calm     85 % 0.00 in 7.0 W/m2 CLR
06:02 53.5 °F 49.1 °F 30.01 in Calm     85 % 0.00 in 11.0 W/m2 CLR
06:07 53.5 °F 49.1 °F 30.02 in Calm     85 % 0.00 in 12.0 W/m2 CLR
06:12 53.6 °F 49.2 °F 30.02 in Calm     85 % 0.00 in 14.0 W/m2 CLR
06:17 53.7 °F 49.3 °F 30.02 in Calm     85 % 0.00 in 16.0 W/m2 CLR
06:22 53.8 °F 49.4 °F 30.02 in Calm     85 % 0.00 in 18.0 W/m2 CLR
06:27 54.3 °F 49.9 °F 30.02 in Calm     85 % 0.00 in 19.0 W/m2 CLR
06:32 54.6 °F 50.2 °F 30.02 in Calm     85 % 0.00 in 21.0 W/m2 CLR
06:37 54.9 °F 50.2 °F 30.02 in Calm     84 % 0.00 in 21.0 W/m2 CLR
06:42 55.2 °F 50.4 °F 30.02 in Calm     84 % 0.00 in 23.0 W/m2 CLR
06:47 55.5 °F 50.7 °F 30.02 in Calm     84 % 0.00 in 25.0 W/m2 CLR
06:53 55.8 °F 50.7 °F 30.02 in Calm     83 % 0.00 in 26.0 W/m2 CLR
06:58 56.1 °F 50.7 °F 30.03 in Calm     82 % 0.00 in 26.0 W/m2 CLR
07:03 56.6 °F 51.2 °F 30.03 in Calm     82 % 0.00 in 28.0 W/m2 CLR
07:08 57.2 °F 51.4 °F 30.03 in Calm     81 % 0.00 in 28.0 W/m2 CLR
07:13 57.7 °F 51.6 °F 30.03 in Calm     80 % 0.00 in 30.0 W/m2 CLR
07:18 58.2 °F 51.7 °F 30.03 in Calm     79 % 0.00 in 32.0 W/m2 CLR
07:23 58.5 °F 51.7 °F 30.03 in Calm     78 % 0.00 in 32.0 W/m2 CLR
07:28 58.8 °F 52.0 °F 30.03 in Calm     78 % 0.00 in 33.0 W/m2 CLR
07:33 59.2 °F 52.3 °F 30.03 in Calm     78 % 0.00 in 35.0 W/m2 CLR
07:38 59.4 °F 51.8 °F 30.04 in Calm     76 % 0.00 in 35.0 W/m2 CLR
07:43 59.9 °F 52.3 °F 30.04 in Calm     76 % 0.00 in 37.0 W/m2 CLR
07:48 60.3 °F 52.3 °F 30.04 in Calm     75 % 0.00 in 39.0 W/m2 CLR
07:53 60.5 °F 52.2 °F 30.04 in Calm     74 % 0.00 in 39.0 W/m2 CLR
07:54 60.5 °F 52.2 °F 30.03 in Calm     74 % 0.00 in 39.0 W/m2 CLR
07:59 61.2 °F 53.2 °F 30.04 in Calm     75 % 0.00 in 40.0 W/m2 CLR
08:04 61.9 °F 53.5 °F 30.03 in Calm     74 % 0.00 in 42.0 W/m2 CLR
08:09 62.3 °F 53.2 °F 30.04 in Calm     72 % 0.00 in 42.0 W/m2 CLR
08:14 63.0 °F 53.8 °F 30.04 in Calm     72 % 0.00 in 44.0 W/m2 CLR
08:19 63.5 °F 53.9 °F 30.04 in Calm     71 % 0.00 in 46.0 W/m2 CLR
08:24 64.0 °F 54.4 °F 30.04 in Calm     71 % 0.00 in 46.0 W/m2 CLR
08:29 64.5 °F 54.9 °F 30.04 in Calm     71 % 0.00 in 49.0 W/m2 CLR
08:34 64.8 °F 54.4 °F 30.04 in Calm     69 % 0.00 in 51.0 W/m2 CLR
08:39 65.2 °F 54.8 °F 30.04 in Calm     69 % 0.00 in 53.0 W/m2 CLR
08:44 65.5 °F 54.7 °F 30.04 in Calm     68 % 0.00 in 56.0 W/m2 CLR
08:45 65.6 °F 55.2 °F 30.04 in Calm     69 % 0.00 in 56.0 W/m2 CLR
08:50 66.4 °F 55.1 °F 30.04 in Calm     67 % 0.00 in 58.0 W/m2 CLR
08:55 67.0 °F 54.8 °F 30.04 in Calm     65 % 0.00 in 100.0 W/m2 CLR
09:00 67.5 °F 55.3 °F 30.04 in Calm   2.3 mph 65 % 0.00 in 179.0 W/m2 CLR
09:05 68.3 °F 55.6 °F 30.04 in Calm   2.3 mph 64 % 0.00 in 564.0 W/m2 CLR
09:10 68.9 °F 56.2 °F 30.04 in Calm   2.3 mph 64 % 0.00 in 578.0 W/m2 CLR
09:15 69.5 °F 56.3 °F 30.04 in Calm     63 % 0.00 in 598.0 W/m2 CLR
09:20 70.0 °F 56.4 °F 30.04 in Calm   3.5 mph 62 % 0.00 in 615.0 W/m2 CLR
09:25 70.1 °F 56.5 °F 30.04 in Calm   3.5 mph 62 % 0.00 in 631.0 W/m2 CLR
09:30 70.7 °F 57.0 °F 30.04 in WNW 0.6 mph 3.5 mph 62 % 0.00 in 643.0 W/m2 CLR
09:35 70.9 °F 56.8 °F 30.04 in WNW 0.1 mph 3.5 mph 61 % 0.00 in 656.0 W/m2 CLR
09:40 71.8 °F 57.2 °F 30.04 in Calm   3.5 mph 60 % 0.00 in 671.0 W/m2 CLR
09:45 71.7 °F 57.1 °F 30.04 in WSW 0.1 mph 3.5 mph 60 % 0.00 in 686.0 W/m2 CLR
09:50 72.0 °F 56.9 °F 30.03 in SW 0.4 mph 3.5 mph 59 % 0.00 in 696.0 W/m2 CLR
09:56 72.2 °F 57.5 °F 30.03 in Calm   5.8 mph 60 % 0.00 in 712.0 W/m2 CLR
10:01 72.7 °F 57.5 °F 30.03 in West 2.8 mph 8.1 mph 59 % 0.00 in 724.0 W/m2 CLR
10:06 73.2 °F 58.0 °F 30.03 in Calm   8.1 mph 59 % 0.00 in 737.0 W/m2 CLR
10:11 73.7 °F 57.5 °F 30.04 in West 0.1 mph 8.1 mph 57 % 0.00 in 747.0 W/m2 CLR
10:16 73.8 °F 57.6 °F 30.03 in Calm   6.9 mph 57 % 0.00 in 759.0 W/m2 CLR
10:21 74.4 °F 58.2 °F 30.04 in Calm   6.9 mph 57 % 0.00 in 772.0 W/m2 CLR
10:26 74.3 °F 58.1 °F 30.03 in SSW 1.2 mph 6.9 mph 57 % 0.00 in 784.0 W/m2 CLR
10:31 74.7 °F 58.0 °F 30.04 in SSW 3.1 mph 9.2 mph 56 % 0.00 in 795.0 W/m2 CLR
10:36 75.3 °F 58.5 °F 30.03 in WSW 3.5 mph 9.2 mph 56 % 0.00 in 805.0 W/m2 CLR
10:41 75.3 °F 59.0 °F 30.03 in SW 2.1 mph 6.9 mph 57 % 0.00 in 817.0 W/m2 CLR
10:46 75.3 °F 58.5 °F 30.03 in West 0.9 mph 6.9 mph 56 % 0.00 in 828.0 W/m2 CLR
10:51 75.6 °F 58.3 °F 30.03 in SSW 0.3 mph 6.9 mph 55 % 0.00 in 837.0 W/m2 CLR
10:56 76.1 °F 58.2 °F 30.03 in SW 0.3 mph 6.9 mph 54 % 0.00 in 846.0 W/m2 CLR
11:01 76.4 °F 59.0 °F 30.02 in WSW 0.4 mph 4.6 mph 55 % 0.00 in 856.0 W/m2 CLR
11:06 77.2 °F 59.3 °F 30.02 in SW 1.4 mph 4.6 mph 54 % 0.00 in 865.0 W/m2 CLR
11:11 77.5 °F 59.0 °F 30.02 in West 0.1 mph 4.6 mph 53 % 0.00 in 874.0 W/m2 CLR
11:16 77.5 °F 59.5 °F 30.02 in SSW 1.0 mph 9.2 mph 54 % 0.00 in 882.0 W/m2 CLR
11:21 78.2 °F 59.7 °F 30.02 in SW 1.9 mph 9.2 mph 53 % 0.00 in 893.0 W/m2 CLR
11:26 78.7 °F 60.1 °F 30.01 in SW 0.8 mph 4.6 mph 53 % 0.00 in 898.0 W/m2 CLR
11:31 78.9 °F 59.8 °F 30.01 in West 4.2 mph 10.4 mph 52 % 0.00 in 904.0 W/m2 CLR
11:36 79.4 °F 60.2 °F 30.01 in WSW 1.0 mph 10.4 mph 52 % 0.00 in 909.0 W/m2 CLR
11:41 79.6 °F 60.4 °F 30.01 in Calm   9.2 mph 52 % 0.00 in 919.0 W/m2 CLR
11:46 80.2 °F 59.9 °F 30.01 in SW 2.5 mph 8.1 mph 50 % 0.00 in 926.0 W/m2 CLR
11:51 80.9 °F 60.5 °F 30.01 in SSW 2.5 mph 11.5 mph 50 % 0.00 in 930.0 W/m2 CLR
12:01 82.4 °F 60.7 °F 30.00 in South 4.2 mph 8.1 mph 48 % 0.00 in 940.0 W/m2 CLR
12:06 82.2 °F 60.6 °F 30.00 in SW 2.6 mph 9.2 mph 48 % 0.00 in 942.0 W/m2 CLR
12:12 82.4 °F 61.3 °F 30.00 in SSW 0.5 mph 9.2 mph 49 % 0.00 in 949.0 W/m2 CLR
12:17 83.2 °F 62.1 °F 29.99 in SW 1.0 mph 8.1 mph 49 % 0.00 in 954.0 W/m2 CLR
12:22 83.2 °F 62.1 °F 29.99 in WSW 2.1 mph 8.1 mph 49 % 0.00 in 960.0 W/m2 CLR
12:27 83.0 °F 61.9 °F 29.99 in SSW 3.0 mph 11.5 mph 49 % 0.00 in 960.0 W/m2 CLR
12:32 83.9 °F 62.1 °F 29.99 in SSW 2.2 mph 11.5 mph 48 % 0.00 in 963.0 W/m2 CLR
12:33 84.2 °F 63.0 °F 29.99 in Calm   11.5 mph 49 % 0.00 in 962.0 W/m2 CLR
12:39 84.6 °F 62.1 °F 29.99 in SW 4.1 mph 11.5 mph 47 % 0.00 in 972.0 W/m2 CLR
12:43 84.4 °F 62.0 °F 29.99 in SW 4.6 mph 13.8 mph 47 % 0.00 in 972.0 W/m2 CLR
12:48 84.6 °F 62.1 °F 29.98 in SW 5.2 mph 13.8 mph 47 % 0.00 in 976.0 W/m2 CLR
12:53 84.7 °F 62.2 °F 29.98 in WSW 4.6 mph 11.5 mph 47 % 0.00 in 974.0 W/m2 CLR
12:59 84.7 °F 62.2 °F 29.98 in SW 0.1 mph 12.7 mph 47 % 0.00 in 974.0 W/m2 CLR
13:04 85.2 °F 62.1 °F 29.98 in SW 3.6 mph 12.7 mph 46 % 0.00 in 974.0 W/m2 CLR
13:09 85.6 °F 61.8 °F 29.97 in SW 3.4 mph 13.8 mph 45 % 0.00 in 976.0 W/m2 CLR
13:14 85.6 °F 61.8 °F 29.97 in WSW 4.5 mph 13.8 mph 45 % 0.00 in 976.0 W/m2 CLR
13:19 85.9 °F 61.5 °F 29.97 in SW 4.4 mph 11.5 mph 44 % 0.00 in 974.0 W/m2 CLR
13:24 86.0 °F 62.2 °F 29.97 in SW 3.3 mph 11.5 mph 45 % 0.00 in 976.0 W/m2 CLR
13:29 86.3 °F 61.2 °F 29.96 in SW 2.2 mph 11.5 mph 43 % 0.00 in 972.0 W/m2 CLR
13:34 86.3 °F 62.5 °F 29.96 in SSW 4.7 mph 8.1 mph 45 % 0.00 in 969.0 W/m2 CLR
13:39 86.4 °F 61.9 °F 29.96 in SW 5.9 mph 9.2 mph 44 % 0.00 in 963.0 W/m2 CLR
13:44 86.3 °F 61.8 °F 29.96 in SSW 3.2 mph 11.5 mph 44 % 0.00 in 954.0 W/m2 CLR
13:49 86.8 °F 62.3 °F 29.96 in SW 3.0 mph 11.5 mph 44 % 0.00 in 954.0 W/m2 CLR
13:54 87.0 °F 61.8 °F 29.96 in West 2.3 mph 11.5 mph 43 % 0.00 in 947.0 W/m2 CLR
13:59 87.3 °F 61.4 °F 29.96 in SSW 6.9 mph 13.8 mph 42 % 0.00 in 946.0 W/m2 CLR
14:04 87.4 °F 61.5 °F 29.95 in WSW 0.4 mph 13.8 mph 42 % 0.00 in 942.0 W/m2 CLR
14:09 87.7 °F 62.4 °F 29.95 in WSW 1.2 mph 13.8 mph 43 % 0.00 in 933.0 W/m2 CLR
14:14 87.2 °F 61.3 °F 29.95 in West 7.4 mph 11.5 mph 42 % 0.00 in 925.0 W/m2 CLR
14:19 87.1 °F 61.9 °F 29.95 in West 3.1 mph 13.8 mph 43 % 0.00 in 918.0 W/m2 CLR
14:24 87.7 °F 61.8 °F 29.95 in SSW 5.8 mph 13.8 mph 42 % 0.00 in 907.0 W/m2 CLR
14:29 87.4 °F 61.5 °F 29.95 in SW 7.2 mph 16.1 mph 42 % 0.00 in 905.0 W/m2 CLR
14:34 87.5 °F 62.2 °F 29.95 in West 0.6 mph 16.1 mph 43 % 0.00 in 891.0 W/m2 CLR
14:39 87.8 °F 61.9 °F 29.95 in SW 4.8 mph 12.7 mph 42 % 0.00 in 879.0 W/m2 CLR
14:44 88.1 °F 61.4 °F 29.95 in SW 10.5 mph 12.7 mph 41 % 0.00 in 877.0 W/m2 CLR
14:49 88.4 °F 61.7 °F 29.95 in NW 4.6 mph 17.3 mph 41 % 0.00 in 858.0 W/m2 CLR
14:54 88.5 °F 62.5 °F 29.95 in SW 2.3 mph 17.3 mph 42 % 0.00 in 854.0 W/m2 CLR
14:59 88.8 °F 62.7 °F 29.94 in WSW 5.9 mph 13.8 mph 42 % 0.00 in 847.0 W/m2 CLR
15:04 88.3 °F 61.6 °F 29.94 in WNW 1.2 mph 13.8 mph 41 % 0.00 in 838.0 W/m2 CLR
15:10 88.4 °F 62.4 °F 29.94 in SW 3.0 mph 12.0 mph 42 % 0.00 in 835.0 W/m2 CLR
15:15 88.4 °F 61.7 °F 29.94 in WSW 2.0 mph 12.7 mph 41 % 0.00 in 821.0 W/m2 CLR
15:16 88.4 °F 61.7 °F 29.94 in South 4.1 mph 12.7 mph 41 % 0.00 in 807.0 W/m2 CLR
15:21 88.7 °F 62.7 °F 29.94 in SW 5.6 mph 12.7 mph 42 % 0.00 in 803.0 W/m2 CLR
15:26 88.8 °F 62.1 °F 29.94 in West 3.4 mph 11.5 mph 41 % 0.00 in 793.0 W/m2 CLR
15:31 89.1 °F 63.0 °F 29.93 in SW 0.2 mph 11.5 mph 42 % 0.00 in 775.0 W/m2 CLR
15:36 89.0 °F 61.5 °F 29.93 in SSW 3.2 mph 11.5 mph 40 % 0.00 in 742.0 W/m2 CLR
15:46 89.1 °F 62.3 °F 29.93 in SW 5.1 mph 10.4 mph 41 % 0.00 in 737.0 W/m2 CLR
15:51 88.8 °F 62.1 °F 29.93 in WSW 9.4 mph 13.8 mph 41 % 0.00 in 731.0 W/m2 CLR
15:56 88.7 °F 61.3 °F 29.93 in SW 4.2 mph 16.1 mph 40 % 0.00 in 726.0 W/m2 CLR
16:01 89.0 °F 61.5 °F 29.93 in WSW 5.4 mph 16.1 mph 40 % 0.00 in 684.0 W/m2 CLR
16:06 88.9 °F 61.5 °F 29.93 in SW 5.4 mph 15.0 mph 40 % 0.00 in 689.0 W/m2 CLR
16:11 88.5 °F 61.8 °F 29.93 in SW 4.2 mph 15.0 mph 41 % 0.00 in 643.0 W/m2 CLR
16:17 89.1 °F 62.3 °F 29.93 in SSW 3.1 mph 15.0 mph 41 % 0.00 in 659.0 W/m2 CLR
16:22 89.1 °F 62.3 °F 29.93 in SW 5.5 mph 11.5 mph 41 % 0.00 in 645.0 W/m2 CLR
16:27 88.7 °F 62.0 °F 29.93 in WSW 5.4 mph 16.1 mph 41 % 0.00 in 636.0 W/m2 CLR
16:32 88.8 °F 62.7 °F 29.93 in WSW 4.7 mph 16.1 mph 42 % 0.00 in 619.0 W/m2 CLR
16:37 89.0 °F 62.9 °F 29.92 in SW 2.4 mph 11.5 mph 42 % 0.00 in 612.0 W/m2 CLR
16:42 89.6 °F 62.8 °F 29.93 in SSW 3.3 mph 10.4 mph 41 % 0.00 in 617.0 W/m2 CLR
16:47 89.1 °F 63.0 °F 29.92 in WSW 3.3 mph 11.5 mph 42 % 0.00 in 589.0 W/m2 CLR
16:52 88.9 °F 62.8 °F 29.92 in South 1.1 mph 11.5 mph 42 % 0.00 in 385.0 W/m2 CLR
16:57 88.7 °F 63.3 °F 29.92 in WSW 4.8 mph 11.5 mph 43 % 0.00 in 272.0 W/m2 CLR
17:02 88.3 °F 63.0 °F 29.92 in West 0.9 mph 11.5 mph 43 % 0.00 in 288.0 W/m2 CLR
17:07 88.1 °F 62.8 °F 29.92 in WSW 1.0 mph 11.5 mph 43 % 0.00 in 283.0 W/m2 CLR
17:12 88.0 °F 63.4 °F 29.92 in SSW 0.9 mph 8.1 mph 44 % 0.00 in 367.0 W/m2 CLR
17:17 88.5 °F 63.8 °F 29.92 in SW 0.2 mph 8.1 mph 44 % 0.00 in 582.0 W/m2 CLR
17:22 88.8 °F 64.1 °F 29.92 in SSW 2.8 mph 8.1 mph 44 % 0.00 in 494.0 W/m2 CLR
17:27 88.8 °F 64.1 °F 29.92 in WSW 3.0 mph 10.4 mph 44 % 0.00 in 517.0 W/m2 CLR
17:32 89.1 °F 63.7 °F 29.92 in West 3.5 mph 11.5 mph 43 % 0.00 in 466.0 W/m2 CLR
17:37 89.1 °F 63.7 °F 29.92 in SSW 1.1 mph 11.5 mph 43 % 0.00 in 443.0 W/m2 CLR
17:42 89.1 °F 63.7 °F 29.91 in South 1.4 mph 11.5 mph 43 % 0.00 in 436.0 W/m2 CLR
17:47 89.4 °F 64.0 °F 29.91 in SW 2.4 mph 9.2 mph 43 % 0.00 in 373.0 W/m2 CLR
17:52 89.3 °F 63.9 °F 29.91 in SW 2.4 mph 8.1 mph 43 % 0.00 in 318.0 W/m2 CLR
17:57 88.8 °F 64.1 °F 29.91 in West 1.9 mph 8.1 mph 44 % 0.00 in 343.0 W/m2 CLR
18:02 88.9 °F 63.5 °F 29.91 in SW 5.3 mph 8.1 mph 43 % 0.00 in 320.0 W/m2 CLR
18:07 88.8 °F 63.4 °F 29.91 in WSW 0.6 mph 11.5 mph 43 % 0.00 in 264.0 W/m2 CLR
18:12 88.8 °F 64.1 °F 29.91 in West 1.1 mph 11.5 mph 44 % 0.00 in 169.0 W/m2 CLR
18:17 88.3 °F 63.0 °F 29.91 in WSW 1.7 mph 8.1 mph 43 % 0.00 in 69.0 W/m2 CLR
18:22 87.9 °F 63.9 °F 29.91 in SW 0.6 mph 8.1 mph 45 % 0.00 in 60.0 W/m2 CLR
18:27 87.4 °F 63.5 °F 29.91 in Calm   5.8 mph 45 % 0.00 in 51.0 W/m2 CLR
18:33 87.1 °F 63.8 °F 29.91 in Calm   3.5 mph 46 % 0.00 in 54.0 W/m2 CLR
18:38 86.9 °F 63.6 °F 29.91 in Calm   3.5 mph 46 % 0.00 in 56.0 W/m2 CLR
18:43 86.7 °F 63.4 °F 29.91 in Calm     46 % 0.00 in 58.0 W/m2 CLR
18:44 86.6 °F 64.0 °F 29.92 in Calm     47 % 0.00 in 63.0 W/m2 CLR
18:47 86.6 °F 63.4 °F 29.92 in Calm   2.3 mph 46 % 0.00 in 69.0 W/m2 CLR
18:52 86.4 °F 63.8 °F 29.92 in Calm   2.3 mph 47 % 0.00 in 93.0 W/m2 CLR
18:57 86.3 °F 63.7 °F 29.92 in Calm   2.3 mph 47 % 0.00 in 97.0 W/m2 CLR
19:02 86.5 °F 63.9 °F 29.92 in SW 0.7 mph   47 % 0.00 in 74.0 W/m2 CLR
19:07 86.4 °F 63.8 °F 29.92 in Calm   3.5 mph 47 % 0.00 in 58.0 W/m2 CLR
19:12 86.2 °F 63.6 °F 29.92 in Calm   3.5 mph 47 % 0.00 in 63.0 W/m2 CLR
19:17 85.9 °F 63.9 °F 29.92 in Calm   2.3 mph 48 % 0.00 in 62.0 W/m2 CLR
19:19 86.0 °F 63.4 °F 29.92 in SSW 1.2 mph 3.5 mph 47 % 0.00 in 60.0 W/m2 CLR
19:24 85.8 °F 63.8 °F 29.92 in SW 1.7 mph 3.5 mph 48 % 0.00 in 58.0 W/m2 CLR
19:29 85.7 °F 64.3 °F 29.92 in SSW 2.1 mph 5.8 mph 49 % 0.00 in 53.0 W/m2 CLR
19:34 85.5 °F 64.2 °F 29.92 in Calm   5.8 mph 49 % 0.00 in 44.0 W/m2 CLR
19:39 85.3 °F 64.6 °F 29.92 in Calm   5.8 mph 50 % 0.00 in 35.0 W/m2 CLR
19:44 85.0 °F 65.4 °F 29.92 in Calm   5.8 mph 52 % 0.00 in 28.0 W/m2 CLR
19:49 84.6 °F 65.6 °F 29.92 in SSW 3.9 mph 6.9 mph 53 % 0.00 in 21.0 W/m2 CLR
19:54 84.4 °F 65.9 °F 29.92 in SSW 1.2 mph 6.9 mph 54 % 0.00 in 14.0 W/m2 CLR
19:59 84.2 °F 65.8 °F 29.92 in SSW 0.4 mph 6.9 mph 54 % 0.00 in 11.0 W/m2 CLR
20:04 83.8 °F 65.9 °F 29.92 in SW 0.3 mph 8.1 mph 55 % 0.00 in 7.0 W/m2 CLR
20:09 83.5 °F 65.6 °F 29.92 in SSW 1.5 mph 9.2 mph 55 % 0.00 in 5.0 W/m2 CLR
20:14 83.3 °F 66.0 °F 29.92 in SSW 0.6 mph 9.2 mph 56 % 0.00 in 0.0 W/m2 CLR
20:19 83.1 °F 65.8 °F 29.92 in Calm   9.2 mph 56 % 0.00 in 0.0 W/m2 CLR
20:24 83.0 °F 65.7 °F 29.92 in SSW 1.4 mph 8.1 mph 56 % 0.00 in 0.0 W/m2 CLR
20:29 82.9 °F 65.6 °F 29.92 in SW 0.2 mph 8.1 mph 56 % 0.00 in 0.0 W/m2 CLR
20:34 82.7 °F 65.4 °F 29.92 in South 3.8 mph 8.1 mph 56 % 0.00 in 0.0 W/m2 CLR
20:39 82.7 °F 65.4 °F 29.92 in South 1.1 mph 10.4 mph 56 % 0.00 in 0.0 W/m2 CLR
20:44 82.5 °F 65.2 °F 29.93 in South 3.7 mph 10.4 mph 56 % 0.00 in 0.0 W/m2 CLR
20:49 82.4 °F 65.1 °F 29.93 in SSW 2.5 mph 10.4 mph 56 % 0.00 in 0.0 W/m2 CLR
20:50 82.4 °F 65.1 °F 29.92 in SSW 1.6 mph 10.4 mph 56 % 0.00 in 0.0 W/m2 CLR
20:55 82.3 °F 65.0 °F 29.93 in Calm   10.0 mph 56 % 0.00 in 0.0 W/m2 CLR
21:00 82.1 °F 65.4 °F 29.93 in Calm   10.4 mph 57 % 0.00 in 0.0 W/m2 CLR
21:05 81.9 °F 65.2 °F 29.93 in SW 2.5 mph 6.9 mph 57 % 0.00 in 0.0 W/m2 CLR
21:10 81.6 °F 64.9 °F 29.93 in Calm   6.9 mph 57 % 0.00 in 0.0 W/m2 CLR
21:15 81.3 °F 65.1 °F 29.93 in Calm   6.9 mph 58 % 0.00 in 0.0 W/m2 CLR
21:20 81.0 °F 65.3 °F 29.93 in Calm   3.5 mph 59 % 0.00 in 0.0 W/m2 CLR
21:25 80.7 °F 65.0 °F 29.94 in West 0.8 mph 3.5 mph 59 % 0.00 in 0.0 W/m2 CLR
21:30 80.6 °F 65.4 °F 29.94 in Calm   5.8 mph 60 % 0.00 in 0.0 W/m2 CLR
21:35 80.5 °F 65.3 °F 29.93 in Calm   5.8 mph 60 % 0.00 in 0.0 W/m2 CLR
21:40 80.5 °F 64.9 °F 29.94 in SW 1.0 mph 3.5 mph 59 % 0.00 in 0.0 W/m2 CLR
21:45 80.7 °F 65.0 °F 29.94 in WSW 4.6 mph 8.1 mph 59 % 0.00 in 0.0 W/m2 CLR
21:50 80.6 °F 64.9 °F 29.94 in WSW 2.1 mph 8.1 mph 59 % 0.00 in 0.0 W/m2 CLR
21:55 80.6 °F 64.9 °F 29.94 in SW 0.3 mph 8.1 mph 59 % 0.00 in 0.0 W/m2 CLR
22:00 80.7 °F 64.5 °F 29.94 in SW 3.7 mph 8.1 mph 58 % 0.00 in 0.0 W/m2 CLR
22:05 80.8 °F 64.6 °F 29.94 in SSW 0.6 mph 10.4 mph 58 % 0.00 in 0.0 W/m2 CLR
22:10 80.8 °F 64.6 °F 29.94 in SSW 3.1 mph 10.4 mph 58 % 0.00 in 0.0 W/m2 CLR
22:15 80.7 °F 64.5 °F 29.94 in Calm   9.2 mph 58 % 0.00 in 0.0 W/m2 CLR
22:20 80.5 °F 64.4 °F 29.95 in South 5.5 mph 9.2 mph 58 % 0.00 in 0.0 W/m2 CLR
22:25 80.5 °F 64.4 °F 29.94 in WSW 1.3 mph 9.2 mph 58 % 0.00 in 0.0 W/m2 CLR
22:30 80.5 °F 64.4 °F 29.94 in SSW 0.9 mph 10.4 mph 58 % 0.00 in 0.0 W/m2 CLR
22:35 80.3 °F 64.2 °F 29.94 in WSW 0.3 mph 10.4 mph 58 % 0.00 in 0.0 W/m2 CLR
22:40 80.0 °F 63.9 °F 29.94 in Calm   4.6 mph 58 % 0.00 in 0.0 W/m2 CLR
22:45 79.8 °F 64.2 °F 29.94 in Calm   2.3 mph 59 % 0.00 in 0.0 W/m2 CLR
22:50 79.5 °F 63.9 °F 29.94 in Calm   2.3 mph 59 % 0.00 in 0.0 W/m2 CLR
22:56 79.2 °F 64.1 °F 29.94 in Calm   2.3 mph 60 % 0.00 in 0.0 W/m2 CLR
23:01 79.0 °F 63.9 °F 29.94 in Calm     60 % 0.00 in 0.0 W/m2 CLR
23:06 78.9 °F 63.8 °F 29.94 in Calm     60 % 0.00 in 0.0 W/m2 CLR
23:11 78.8 °F 64.2 °F 29.94 in Calm     61 % 0.00 in 0.0 W/m2 CLR
23:16 78.6 °F 64.0 °F 29.94 in Calm     61 % 0.00 in 0.0 W/m2 CLR
23:21 78.3 °F 63.7 °F 29.93 in Calm     61 % 0.00 in 0.0 W/m2 CLR
23:26 78.2 °F 64.1 °F 29.93 in Calm     62 % 0.00 in 0.0 W/m2 CLR
23:27 78.2 °F 64.1 °F 29.93 in WSW 1.8 mph 2.3 mph 62 % 0.00 in 0.0 W/m2 CLR
23:32 78.2 °F 64.1 °F 29.93 in Calm   5.8 mph 62 % 0.00 in 0.0 W/m2 CLR
23:37 78.1 °F 64.0 °F 29.93 in WSW 0.3 mph 5.8 mph 62 % 0.00 in 0.0 W/m2 CLR
23:42 77.9 °F 63.8 °F 29.93 in Calm   4.6 mph 62 % 0.00 in 0.0 W/m2 CLR
23:47 77.7 °F 64.1 °F 29.93 in Calm   4.6 mph 63 % 0.00 in 0.0 W/m2 CLR
23:52 77.7 °F 64.1 °F 29.93 in Calm   3.5 mph 63 % 0.00 in 0.0 W/m2 CLR
23:57 77.7 °F 64.1 °F 29.93 in Calm   3.5 mph 63 % 0.00 in 0.0 W/m2 CLR
Air Products Campus Weather
Compliments of Weather Underground - 3.5 mb